sensor_id;sensor_type;location;lat;lon;timestamp;temperature;humidity
23010;DHT22;11671;49.990;8.028;2023-04-24T00:01:40;13.10;99.90
23010;DHT22;11671;49.990;8.028;2023-04-24T00:04:06;13.10;99.90
23010;DHT22;11671;49.990;8.028;2023-04-24T00:06:32;13.10;99.90
23010;DHT22;11671;49.990;8.028;2023-04-24T00:09:00;13.00;99.90
23010;DHT22;11671;49.990;8.028;2023-04-24T00:11:26;13.00;99.90
23010;DHT22;11671;49.990;8.028;2023-04-24T00:13:52;13.00;99.90
23010;DHT22;11671;49.990;8.028;2023-04-24T00:16:17;13.00;99.90
23010;DHT22;11671;49.990;8.028;2023-04-24T00:18:43;13.00;99.90
23010;DHT22;11671;49.990;8.028;2023-04-24T00:21:10;13.00;99.90
23010;DHT22;11671;49.990;8.028;2023-04-24T00:23:36;13.00;99.90
23010;DHT22;11671;49.990;8.028;2023-04-24T00:26:01;13.00;99.90
23010;DHT22;11671;49.990;8.028;2023-04-24T00:28:27;13.00;99.90
23010;DHT22;11671;49.990;8.028;2023-04-24T00:30:53;13.10;99.90
23010;DHT22;11671;49.990;8.028;2023-04-24T00:33:19;13.10;99.90
23010;DHT22;11671;49.990;8.028;2023-04-24T00:35:44;13.10;99.90
23010;DHT22;11671;49.990;8.028;2023-04-24T00:38:10;13.00;99.90
23010;DHT22;11671;49.990;8.028;2023-04-24T00:40:35;13.00;99.90
23010;DHT22;11671;49.990;8.028;2023-04-24T00:43:01;12.90;99.90
23010;DHT22;11671;49.990;8.028;2023-04-24T00:45:26;12.90;99.90
23010;DHT22;11671;49.990;8.028;2023-04-24T00:47:53;12.90;99.90
23010;DHT22;11671;49.990;8.028;2023-04-24T00:50:20;12.90;99.90
23010;DHT22;11671;49.990;8.028;2023-04-24T00:52:46;12.90;99.90
23010;DHT22;11671;49.990;8.028;2023-04-24T00:55:12;12.90;99.90
23010;DHT22;11671;49.990;8.028;2023-04-24T00:57:38;12.90;99.90
23010;DHT22;11671;49.990;8.028;2023-04-24T01:00:05;12.90;99.90
23010;DHT22;11671;49.990;8.028;2023-04-24T01:02:33;12.90;99.90
23010;DHT22;11671;49.990;8.028;2023-04-24T01:05:00;13.00;99.90
23010;DHT22;11671;49.990;8.028;2023-04-24T01:07:26;13.00;99.90
23010;DHT22;11671;49.990;8.028;2023-04-24T01:09:52;13.00;99.90
23010;DHT22;11671;49.990;8.028;2023-04-24T01:12:18;13.00;99.90
23010;DHT22;11671;49.990;8.028;2023-04-24T01:14:44;13.00;99.90
23010;DHT22;11671;49.990;8.028;2023-04-24T01:17:10;13.00;99.90
23010;DHT22;11671;49.990;8.028;2023-04-24T01:19:36;13.00;99.90
23010;DHT22;11671;49.990;8.028;2023-04-24T01:22:02;13.00;99.90
23010;DHT22;11671;49.990;8.028;2023-04-24T01:24:28;12.90;99.90
23010;DHT22;11671;49.990;8.028;2023-04-24T01:26:54;13.00;99.90
23010;DHT22;11671;49.990;8.028;2023-04-24T01:29:20;13.00;99.90
23010;DHT22;11671;49.990;8.028;2023-04-24T01:31:46;12.90;99.90
23010;DHT22;11671;49.990;8.028;2023-04-24T01:34:12;12.90;99.90
23010;DHT22;11671;49.990;8.028;2023-04-24T01:36:38;13.00;99.90
23010;DHT22;11671;49.990;8.028;2023-04-24T01:39:05;13.00;99.90
23010;DHT22;11671;49.990;8.028;2023-04-24T01:41:30;13.10;99.90
23010;DHT22;11671;49.990;8.028;2023-04-24T01:43:57;13.10;99.90
23010;DHT22;11671;49.990;8.028;2023-04-24T01:46:24;13.10;99.90
23010;DHT22;11671;49.990;8.028;2023-04-24T01:48:51;13.10;99.90
23010;DHT22;11671;49.990;8.028;2023-04-24T01:51:17;13.00;99.90
23010;DHT22;11671;49.990;8.028;2023-04-24T01:53:42;13.00;99.90
23010;DHT22;11671;49.990;8.028;2023-04-24T01:56:08;13.00;99.90
23010;DHT22;11671;49.990;8.028;2023-04-24T01:58:35;13.00;99.90
23010;DHT22;11671;49.990;8.028;2023-04-24T02:01:00;13.00;99.90
23010;DHT22;11671;49.990;8.028;2023-04-24T02:03:26;13.00;99.90
23010;DHT22;11671;49.990;8.028;2023-04-24T02:05:52;12.90;99.90
23010;DHT22;11671;49.990;8.028;2023-04-24T02:08:18;12.90;99.90
23010;DHT22;11671;49.990;8.028;2023-04-24T02:10:43;12.90;99.90
23010;DHT22;11671;49.990;8.028;2023-04-24T02:13:09;12.90;99.90
23010;DHT22;11671;49.990;8.028;2023-04-24T02:15:35;12.90;99.90
23010;DHT22;11671;49.990;8.028;2023-04-24T02:18:01;12.90;99.90
23010;DHT22;11671;49.990;8.028;2023-04-24T02:20:26;12.80;99.90
23010;DHT22;11671;49.990;8.028;2023-04-24T02:22:52;12.80;99.90
23010;DHT22;11671;49.990;8.028;2023-04-24T02:25:18;12.80;99.90
23010;DHT22;11671;49.990;8.028;2023-04-24T02:27:43;12.70;99.90
23010;DHT22;11671;49.990;8.028;2023-04-24T02:30:09;12.80;99.90
23010;DHT22;11671;49.990;8.028;2023-04-24T02:32:35;12.90;99.90
23010;DHT22;11671;49.990;8.028;2023-04-24T02:35:01;12.80;99.90
23010;DHT22;11671;49.990;8.028;2023-04-24T02:37:26;12.80;99.90
23010;DHT22;11671;49.990;8.028;2023-04-24T02:39:52;12.80;99.90
23010;DHT22;11671;49.990;8.028;2023-04-24T02:42:17;12.90;99.90
23010;DHT22;11671;49.990;8.028;2023-04-24T02:44:43;12.80;99.90
23010;DHT22;11671;49.990;8.028;2023-04-24T02:47:08;12.90;99.90
23010;DHT22;11671;49.990;8.028;2023-04-24T02:49:34;12.80;99.90
23010;DHT22;11671;49.990;8.028;2023-04-24T02:52:00;12.90;99.90
23010;DHT22;11671;49.990;8.028;2023-04-24T02:54:25;12.80;99.90
23010;DHT22;11671;49.990;8.028;2023-04-24T02:56:51;12.90;99.90
23010;DHT22;11671;49.990;8.028;2023-04-24T02:59:16;12.90;99.90
23010;DHT22;11671;49.990;8.028;2023-04-24T03:01:42;12.80;99.90
23010;DHT22;11671;49.990;8.028;2023-04-24T03:04:08;12.80;99.90
23010;DHT22;11671;49.990;8.028;2023-04-24T03:06:33;12.90;99.90
23010;DHT22;11671;49.990;8.028;2023-04-24T03:09:00;12.90;99.90
23010;DHT22;11671;49.990;8.028;2023-04-24T03:11:26;12.90;99.90
23010;DHT22;11671;49.990;8.028;2023-04-24T03:13:51;12.80;99.90
23010;DHT22;11671;49.990;8.028;2023-04-24T03:16:17;12.80;99.90
23010;DHT22;11671;49.990;8.028;2023-04-24T03:18:42;12.80;99.90
23010;DHT22;11671;49.990;8.028;2023-04-24T03:21:08;12.80;99.90
23010;DHT22;11671;49.990;8.028;2023-04-24T03:23:34;12.70;99.90
23010;DHT22;11671;49.990;8.028;2023-04-24T03:25:59;12.60;99.90
23010;DHT22;11671;49.990;8.028;2023-04-24T03:28:25;12.50;99.90
23010;DHT22;11671;49.990;8.028;2023-04-24T03:30:51;12.40;99.90
23010;DHT22;11671;49.990;8.028;2023-04-24T03:33:16;12.30;99.90
23010;DHT22;11671;49.990;8.028;2023-04-24T03:35:42;12.20;99.90
23010;DHT22;11671;49.990;8.028;2023-04-24T03:38:07;12.20;99.90
23010;DHT22;11671;49.990;8.028;2023-04-24T03:40:33;12.10;99.90
23010;DHT22;11671;49.990;8.028;2023-04-24T03:42:58;12.00;99.90
23010;DHT22;11671;49.990;8.028;2023-04-24T03:45:24;12.00;99.90
23010;DHT22;11671;49.990;8.028;2023-04-24T03:47:49;11.90;99.90
23010;DHT22;11671;49.990;8.028;2023-04-24T03:50:15;11.90;99.90
23010;DHT22;11671;49.990;8.028;2023-04-24T03:52:41;11.90;99.90
23010;DHT22;11671;49.990;8.028;2023-04-24T03:55:06;11.80;99.90
23010;DHT22;11671;49.990;8.028;2023-04-24T03:57:32;11.80;99.90
23010;DHT22;11671;49.990;8.028;2023-04-24T03:59:58;11.70;99.90
23010;DHT22;11671;49.990;8.028;2023-04-24T04:02:23;11.70;99.90
23010;DHT22;11671;49.990;8.028;2023-04-24T04:04:49;11.70;99.90
23010;DHT22;11671;49.990;8.028;2023-04-24T04:07:14;11.70;99.90
23010;DHT22;11671;49.990;8.028;2023-04-24T04:09:40;11.80;99.90
23010;DHT22;11671;49.990;8.028;2023-04-24T04:12:05;11.70;99.90
23010;DHT22;11671;49.990;8.028;2023-04-24T04:14:31;11.60;99.90
23010;DHT22;11671;49.990;8.028;2023-04-24T04:16:56;11.40;99.90
23010;DHT22;11671;49.990;8.028;2023-04-24T04:19:22;11.30;99.90
23010;DHT22;11671;49.990;8.028;2023-04-24T04:21:47;11.20;99.90
23010;DHT22;11671;49.990;8.028;2023-04-24T04:24:18;11.10;99.90
23010;DHT22;11671;49.990;8.028;2023-04-24T04:26:44;11.00;99.90
23010;DHT22;11671;49.990;8.028;2023-04-24T04:29:12;10.90;99.90
23010;DHT22;11671;49.990;8.028;2023-04-24T04:31:38;10.90;99.90
23010;DHT22;11671;49.990;8.028;2023-04-24T04:34:04;10.90;99.90
23010;DHT22;11671;49.990;8.028;2023-04-24T04:36:29;10.90;99.90
23010;DHT22;11671;49.990;8.028;2023-04-24T04:38:55;10.90;99.90
23010;DHT22;11671;49.990;8.028;2023-04-24T04:41:22;10.80;99.90
23010;DHT22;11671;49.990;8.028;2023-04-24T04:43:47;10.50;99.90
23010;DHT22;11671;49.990;8.028;2023-04-24T04:46:13;10.50;99.90
23010;DHT22;11671;49.990;8.028;2023-04-24T04:48:39;10.40;99.90
23010;DHT22;11671;49.990;8.028;2023-04-24T04:51:05;10.30;99.90
23010;DHT22;11671;49.990;8.028;2023-04-24T04:53:31;10.30;99.90
23010;DHT22;11671;49.990;8.028;2023-04-24T04:55:57;10.30;99.90
23010;DHT22;11671;49.990;8.028;2023-04-24T04:58:22;10.40;99.90
23010;DHT22;11671;49.990;8.028;2023-04-24T05:00:48;10.40;99.90
23010;DHT22;11671;49.990;8.028;2023-04-24T05:03:13;10.50;99.90
23010;DHT22;11671;49.990;8.028;2023-04-24T05:05:39;10.60;99.90
23010;DHT22;11671;49.990;8.028;2023-04-24T05:08:09;10.60;99.90
23010;DHT22;11671;49.990;8.028;2023-04-24T05:10:35;10.70;99.90
23010;DHT22;11671;49.990;8.028;2023-04-24T05:13:02;10.90;99.90
23010;DHT22;11671;49.990;8.028;2023-04-24T05:15:28;11.20;99.90
23010;DHT22;11671;49.990;8.028;2023-04-24T05:17:54;11.50;99.90
23010;DHT22;11671;49.990;8.028;2023-04-24T05:20:20;11.80;99.90
23010;DHT22;11671;49.990;8.028;2023-04-24T05:22:45;11.70;99.90
23010;DHT22;11671;49.990;8.028;2023-04-24T05:25:11;11.50;99.90
23010;DHT22;11671;49.990;8.028;2023-04-24T05:27:38;11.20;99.90
23010;DHT22;11671;49.990;8.028;2023-04-24T05:30:03;11.10;99.90
23010;DHT22;11671;49.990;8.028;2023-04-24T05:32:29;11.10;99.90
23010;DHT22;11671;49.990;8.028;2023-04-24T05:34:55;11.50;99.90
23010;DHT22;11671;49.990;8.028;2023-04-24T05:37:21;12.50;99.90
23010;DHT22;11671;49.990;8.028;2023-04-24T05:39:46;13.80;99.90
23010;DHT22;11671;49.990;8.028;2023-04-24T05:42:12;15.10;99.90
23010;DHT22;11671;49.990;8.028;2023-04-24T05:44:37;15.80;99.90
23010;DHT22;11671;49.990;8.028;2023-04-24T05:47:03;14.90;99.90
23010;DHT22;11671;49.990;8.028;2023-04-24T05:49:28;14.20;99.90
23010;DHT22;11671;49.990;8.028;2023-04-24T05:51:54;14.00;99.90
23010;DHT22;11671;49.990;8.028;2023-04-24T05:54:20;14.70;99.90
23010;DHT22;11671;49.990;8.028;2023-04-24T05:56:45;15.40;99.90
23010;DHT22;11671;49.990;8.028;2023-04-24T05:59:11;14.60;99.90
23010;DHT22;11671;49.990;8.028;2023-04-24T06:01:37;14.40;99.90
23010;DHT22;11671;49.990;8.028;2023-04-24T06:04:03;14.10;99.90
23010;DHT22;11671;49.990;8.028;2023-04-24T06:06:29;13.80;99.90
23010;DHT22;11671;49.990;8.028;2023-04-24T06:08:55;13.50;99.90
23010;DHT22;11671;49.990;8.028;2023-04-24T06:11:20;13.40;99.90
23010;DHT22;11671;49.990;8.028;2023-04-24T06:13:46;13.30;99.90
23010;DHT22;11671;49.990;8.028;2023-04-24T06:16:12;13.80;99.90
23010;DHT22;11671;49.990;8.028;2023-04-24T06:18:37;13.60;99.90
23010;DHT22;11671;49.990;8.028;2023-04-24T06:21:03;13.40;99.90
23010;DHT22;11671;49.990;8.028;2023-04-24T06:23:29;13.50;99.90
23010;DHT22;11671;49.990;8.028;2023-04-24T06:25:57;13.50;99.90
23010;DHT22;11671;49.990;8.028;2023-04-24T06:28:23;13.40;99.90
23010;DHT22;11671;49.990;8.028;2023-04-24T06:30:48;13.80;99.90
23010;DHT22;11671;49.990;8.028;2023-04-24T06:33:14;14.30;99.90
23010;DHT22;11671;49.990;8.028;2023-04-24T06:35:40;15.00;99.90
23010;DHT22;11671;49.990;8.028;2023-04-24T06:38:05;15.20;99.90
23010;DHT22;11671;49.990;8.028;2023-04-24T06:40:31;15.50;99.90
23010;DHT22;11671;49.990;8.028;2023-04-24T06:42:57;15.70;99.90
23010;DHT22;11671;49.990;8.028;2023-04-24T06:45:23;15.70;99.90
23010;DHT22;11671;49.990;8.028;2023-04-24T06:47:49;16.70;99.90
23010;DHT22;11671;49.990;8.028;2023-04-24T06:50:14;16.70;99.90
23010;DHT22;11671;49.990;8.028;2023-04-24T06:52:40;16.10;99.90
23010;DHT22;11671;49.990;8.028;2023-04-24T06:55:06;15.50;99.90
23010;DHT22;11671;49.990;8.028;2023-04-24T06:57:32;15.80;99.90
23010;DHT22;11671;49.990;8.028;2023-04-24T06:59:58;16.30;99.90
23010;DHT22;11671;49.990;8.028;2023-04-24T07:02:23;17.00;99.90
23010;DHT22;11671;49.990;8.028;2023-04-24T07:04:49;17.40;99.90
23010;DHT22;11671;49.990;8.028;2023-04-24T07:07:14;17.90;99.90
23010;DHT22;11671;49.990;8.028;2023-04-24T07:09:41;17.80;99.90
23010;DHT22;11671;49.990;8.028;2023-04-24T07:12:11;18.00;99.90
23010;DHT22;11671;49.990;8.028;2023-04-24T07:14:37;18.10;99.90
23010;DHT22;11671;49.990;8.028;2023-04-24T07:17:04;18.20;99.90
23010;DHT22;11671;49.990;8.028;2023-04-24T07:19:30;18.40;99.90
23010;DHT22;11671;49.990;8.028;2023-04-24T07:21:56;18.20;99.90
23010;DHT22;11671;49.990;8.028;2023-04-24T07:24:24;18.80;99.90
23010;DHT22;11671;49.990;8.028;2023-04-24T07:26:51;19.00;99.90
23010;DHT22;11671;49.990;8.028;2023-04-24T07:29:17;18.40;99.90
23010;DHT22;11671;49.990;8.028;2023-04-24T07:31:43;17.70;99.90
23010;DHT22;11671;49.990;8.028;2023-04-24T07:34:09;17.10;99.90
23010;DHT22;11671;49.990;8.028;2023-04-24T07:36:35;16.70;99.90
23010;DHT22;11671;49.990;8.028;2023-04-24T07:39:00;16.50;99.90
23010;DHT22;11671;49.990;8.028;2023-04-24T07:41:26;16.30;99.90
23010;DHT22;11671;49.990;8.028;2023-04-24T07:43:53;16.40;99.90
23010;DHT22;11671;49.990;8.028;2023-04-24T07:46:19;16.50;99.90
23010;DHT22;11671;49.990;8.028;2023-04-24T07:48:45;16.60;99.90
23010;DHT22;11671;49.990;8.028;2023-04-24T07:51:14;16.80;99.90
23010;DHT22;11671;49.990;8.028;2023-04-24T07:53:40;17.10;99.90
23010;DHT22;11671;49.990;8.028;2023-04-24T07:56:05;17.80;99.90
23010;DHT22;11671;49.990;8.028;2023-04-24T07:58:31;17.90;99.90
23010;DHT22;11671;49.990;8.028;2023-04-24T08:00:56;18.40;99.90
23010;DHT22;11671;49.990;8.028;2023-04-24T08:03:22;18.20;99.90
23010;DHT22;11671;49.990;8.028;2023-04-24T08:05:48;18.10;99.90
23010;DHT22;11671;49.990;8.028;2023-04-24T08:08:13;18.20;99.90
23010;DHT22;11671;49.990;8.028;2023-04-24T08:10:39;18.00;99.90
23010;DHT22;11671;49.990;8.028;2023-04-24T08:13:04;17.30;99.90
23010;DHT22;11671;49.990;8.028;2023-04-24T08:15:30;16.80;99.90
23010;DHT22;11671;49.990;8.028;2023-04-24T08:17:56;16.20;99.90
23010;DHT22;11671;49.990;8.028;2023-04-24T08:20:22;15.80;99.90
23010;DHT22;11671;49.990;8.028;2023-04-24T08:22:48;15.50;99.90
23010;DHT22;11671;49.990;8.028;2023-04-24T08:25:14;15.30;99.90
23010;DHT22;11671;49.990;8.028;2023-04-24T08:27:39;14.90;99.90
23010;DHT22;11671;49.990;8.028;2023-04-24T08:30:06;14.70;99.90
23010;DHT22;11671;49.990;8.028;2023-04-24T08:32:32;14.50;99.90
23010;DHT22;11671;49.990;8.028;2023-04-24T08:34:58;14.40;99.90
23010;DHT22;11671;49.990;8.028;2023-04-24T08:37:24;14.50;99.90
23010;DHT22;11671;49.990;8.028;2023-04-24T08:39:50;14.60;99.90
23010;DHT22;11671;49.990;8.028;2023-04-24T08:42:19;14.60;99.90
23010;DHT22;11671;49.990;8.028;2023-04-24T08:44:45;14.60;99.90
23010;DHT22;11671;49.990;8.028;2023-04-24T08:47:11;14.60;99.90
23010;DHT22;11671;49.990;8.028;2023-04-24T08:49:37;14.50;99.90
23010;DHT22;11671;49.990;8.028;2023-04-24T08:52:04;14.30;99.90
23010;DHT22;11671;49.990;8.028;2023-04-24T08:54:31;14.20;99.90
23010;DHT22;11671;49.990;8.028;2023-04-24T08:57:01;14.10;99.90
23010;DHT22;11671;49.990;8.028;2023-04-24T08:59:32;14.20;99.90
23010;DHT22;11671;49.990;8.028;2023-04-24T09:01:59;14.00;99.90
23010;DHT22;11671;49.990;8.028;2023-04-24T09:04:25;14.00;99.90
23010;DHT22;11671;49.990;8.028;2023-04-24T09:06:55;14.10;99.90
23010;DHT22;11671;49.990;8.028;2023-04-24T09:09:21;14.10;99.90
23010;DHT22;11671;49.990;8.028;2023-04-24T09:11:49;14.00;99.90
23010;DHT22;11671;49.990;8.028;2023-04-24T09:14:16;14.10;99.90
23010;DHT22;11671;49.990;8.028;2023-04-24T09:16:42;14.30;99.90
23010;DHT22;11671;49.990;8.028;2023-04-24T09:19:08;14.30;99.90
23010;DHT22;11671;49.990;8.028;2023-04-24T09:21:34;14.20;99.90
23010;DHT22;11671;49.990;8.028;2023-04-24T09:24:03;14.10;99.90
23010;DHT22;11671;49.990;8.028;2023-04-24T09:26:34;14.10;99.90
23010;DHT22;11671;49.990;8.028;2023-04-24T09:29:00;14.10;99.90
23010;DHT22;11671;49.990;8.028;2023-04-24T09:31:27;14.10;99.90
23010;DHT22;11671;49.990;8.028;2023-04-24T09:34:03;14.10;99.90
23010;DHT22;11671;49.990;8.028;2023-04-24T09:39:00;13.80;99.90
23010;DHT22;11671;49.990;8.028;2023-04-24T09:41:26;13.70;99.90
23010;DHT22;11671;49.990;8.028;2023-04-24T09:43:53;13.60;99.90
23010;DHT22;11671;49.990;8.028;2023-04-24T09:46:19;13.40;99.90
23010;DHT22;11671;49.990;8.028;2023-04-24T09:48:47;13.30;99.90
23010;DHT22;11671;49.990;8.028;2023-04-24T09:51:12;13.40;99.90
23010;DHT22;11671;49.990;8.028;2023-04-24T09:53:38;13.50;99.90
23010;DHT22;11671;49.990;8.028;2023-04-24T09:56:08;13.50;99.90
23010;DHT22;11671;49.990;8.028;2023-04-24T09:58:36;13.50;99.90
23010;DHT22;11671;49.990;8.028;2023-04-24T10:01:02;13.50;99.90
23010;DHT22;11671;49.990;8.028;2023-04-24T10:03:31;13.50;99.90
23010;DHT22;11671;49.990;8.028;2023-04-24T10:06:03;13.60;99.90
23010;DHT22;11671;49.990;8.028;2023-04-24T10:08:35;13.60;99.90
23010;DHT22;11671;49.990;8.028;2023-04-24T10:11:01;13.60;99.90
23010;DHT22;11671;49.990;8.028;2023-04-24T10:13:27;13.60;99.90
23010;DHT22;11671;49.990;8.028;2023-04-24T10:15:53;13.40;99.90
23010;DHT22;11671;49.990;8.028;2023-04-24T10:18:20;13.40;99.90
23010;DHT22;11671;49.990;8.028;2023-04-24T10:20:46;13.40;99.90
23010;DHT22;11671;49.990;8.028;2023-04-24T10:23:12;13.50;99.90
23010;DHT22;11671;49.990;8.028;2023-04-24T10:25:38;13.70;99.90
23010;DHT22;11671;49.990;8.028;2023-04-24T10:28:03;13.80;99.90
23010;DHT22;11671;49.990;8.028;2023-04-24T10:30:34;14.00;99.90
23010;DHT22;11671;49.990;8.028;2023-04-24T10:33:05;14.40;99.90
23010;DHT22;11671;49.990;8.028;2023-04-24T10:35:35;14.40;99.90
23010;DHT22;11671;49.990;8.028;2023-04-24T10:38:15;14.50;99.90
23010;DHT22;11671;49.990;8.028;2023-04-24T10:40:42;14.50;99.90
23010;DHT22;11671;49.990;8.028;2023-04-24T10:43:09;14.60;99.90
23010;DHT22;11671;49.990;8.028;2023-04-24T10:45:38;14.50;99.90
23010;DHT22;11671;49.990;8.028;2023-04-24T10:48:08;14.40;99.90
23010;DHT22;11671;49.990;8.028;2023-04-24T10:50:43;14.20;99.90
23010;DHT22;11671;49.990;8.028;2023-04-24T10:53:18;14.20;99.90
23010;DHT22;11671;49.990;8.028;2023-04-24T10:55:50;14.40;99.90
23010;DHT22;11671;49.990;8.028;2023-04-24T10:58:35;14.50;99.90
23010;DHT22;11671;49.990;8.028;2023-04-24T11:01:01;14.90;99.90
23010;DHT22;11671;49.990;8.028;2023-04-24T11:03:27;14.90;99.90
23010;DHT22;11671;49.990;8.028;2023-04-24T11:06:11;14.90;99.90
23010;DHT22;11671;49.990;8.028;2023-04-24T11:08:39;14.80;99.90
23010;DHT22;11671;49.990;8.028;2023-04-24T11:11:11;14.80;99.90
23010;DHT22;11671;49.990;8.028;2023-04-24T11:16:30;14.80;99.90
23010;DHT22;11671;49.990;8.028;2023-04-24T11:27:01;15.20;99.90
23010;DHT22;11671;49.990;8.028;2023-04-24T11:29:42;15.40;99.90
23010;DHT22;11671;49.990;8.028;2023-04-24T11:32:22;15.80;99.90
23010;DHT22;11671;49.990;8.028;2023-04-24T11:34:49;16.00;99.90
23010;DHT22;11671;49.990;8.028;2023-04-24T11:37:15;16.00;99.90
23010;DHT22;11671;49.990;8.028;2023-04-24T11:39:41;15.90;99.90
23010;DHT22;11671;49.990;8.028;2023-04-24T11:42:07;15.60;99.90
23010;DHT22;11671;49.990;8.028;2023-04-24T11:44:34;15.50;99.90
23010;DHT22;11671;49.990;8.028;2023-04-24T11:47:05;15.40;99.90
23010;DHT22;11671;49.990;8.028;2023-04-24T11:49:32;15.50;99.90
23010;DHT22;11671;49.990;8.028;2023-04-24T11:51:59;15.40;99.90
23010;DHT22;11671;49.990;8.028;2023-04-24T11:54:25;15.40;99.90
23010;DHT22;11671;49.990;8.028;2023-04-24T11:56:51;15.30;99.90
23010;DHT22;11671;49.990;8.028;2023-04-24T11:59:16;15.30;99.90
23010;DHT22;11671;49.990;8.028;2023-04-24T12:01:43;15.30;99.90
23010;DHT22;11671;49.990;8.028;2023-04-24T12:04:09;15.40;99.90
23010;DHT22;11671;49.990;8.028;2023-04-24T12:06:34;15.40;99.90
23010;DHT22;11671;49.990;8.028;2023-04-24T12:09:00;15.40;99.90
23010;DHT22;11671;49.990;8.028;2023-04-24T12:11:26;15.40;99.90
23010;DHT22;11671;49.990;8.028;2023-04-24T12:13:51;15.40;99.90
23010;DHT22;11671;49.990;8.028;2023-04-24T12:16:17;15.60;99.90
23010;DHT22;11671;49.990;8.028;2023-04-24T12:18:44;16.00;99.90
23010;DHT22;11671;49.990;8.028;2023-04-24T12:21:23;16.20;99.90
23010;DHT22;11671;49.990;8.028;2023-04-24T12:23:54;16.30;99.90
23010;DHT22;11671;49.990;8.028;2023-04-24T12:26:20;16.40;99.90
23010;DHT22;11671;49.990;8.028;2023-04-24T12:28:48;16.30;99.90
23010;DHT22;11671;49.990;8.028;2023-04-24T12:31:15;16.30;99.90
23010;DHT22;11671;49.990;8.028;2023-04-24T12:33:41;16.30;99.90
23010;DHT22;11671;49.990;8.028;2023-04-24T12:36:10;16.20;99.90
23010;DHT22;11671;49.990;8.028;2023-04-24T12:38:37;16.20;99.90
23010;DHT22;11671;49.990;8.028;2023-04-24T12:41:09;16.10;99.90
23010;DHT22;11671;49.990;8.028;2023-04-24T12:43:35;16.40;99.90
23010;DHT22;11671;49.990;8.028;2023-04-24T12:46:02;16.30;99.90
23010;DHT22;11671;49.990;8.028;2023-04-24T12:48:28;16.40;99.90
23010;DHT22;11671;49.990;8.028;2023-04-24T12:50:54;16.40;99.90
23010;DHT22;11671;49.990;8.028;2023-04-24T12:53:22;16.20;99.90
23010;DHT22;11671;49.990;8.028;2023-04-24T12:55:47;16.20;99.90
23010;DHT22;11671;49.990;8.028;2023-04-24T12:58:19;16.00;99.90
23010;DHT22;11671;49.990;8.028;2023-04-24T13:00:46;15.90;99.90
23010;DHT22;11671;49.990;8.028;2023-04-24T13:03:12;15.70;99.90
23010;DHT22;11671;49.990;8.028;2023-04-24T13:05:37;15.10;99.90
23010;DHT22;11671;49.990;8.028;2023-04-24T13:08:03;14.90;99.90
23010;DHT22;11671;49.990;8.028;2023-04-24T13:10:28;15.00;99.90
23010;DHT22;11671;49.990;8.028;2023-04-24T13:12:54;15.00;99.90
23010;DHT22;11671;49.990;8.028;2023-04-24T13:15:19;15.20;99.90
23010;DHT22;11671;49.990;8.028;2023-04-24T13:17:45;15.30;99.90
23010;DHT22;11671;49.990;8.028;2023-04-24T13:20:11;15.30;99.90
23010;DHT22;11671;49.990;8.028;2023-04-24T13:22:36;15.40;99.90
23010;DHT22;11671;49.990;8.028;2023-04-24T13:25:02;15.50;99.90
23010;DHT22;11671;49.990;8.028;2023-04-24T13:27:28;15.60;99.90
23010;DHT22;11671;49.990;8.028;2023-04-24T13:29:53;15.50;99.90
23010;DHT22;11671;49.990;8.028;2023-04-24T13:32:19;15.50;99.90
23010;DHT22;11671;49.990;8.028;2023-04-24T13:34:44;15.50;99.90
23010;DHT22;11671;49.990;8.028;2023-04-24T13:37:10;15.60;99.90
23010;DHT22;11671;49.990;8.028;2023-04-24T13:39:36;15.70;99.90
23010;DHT22;11671;49.990;8.028;2023-04-24T13:42:02;15.70;99.90
23010;DHT22;11671;49.990;8.028;2023-04-24T13:44:27;15.70;99.90
23010;DHT22;11671;49.990;8.028;2023-04-24T13:46:54;15.70;99.90
23010;DHT22;11671;49.990;8.028;2023-04-24T13:49:23;15.70;99.90
23010;DHT22;11671;49.990;8.028;2023-04-24T13:51:50;15.70;99.90
23010;DHT22;11671;49.990;8.028;2023-04-24T13:54:16;15.70;99.90
23010;DHT22;11671;49.990;8.028;2023-04-24T13:56:42;15.60;99.90
23010;DHT22;11671;49.990;8.028;2023-04-24T13:59:07;15.70;99.90
23010;DHT22;11671;49.990;8.028;2023-04-24T14:01:34;15.80;99.90
23010;DHT22;11671;49.990;8.028;2023-04-24T14:03:59;15.70;99.90
23010;DHT22;11671;49.990;8.028;2023-04-24T14:06:25;15.60;99.90
23010;DHT22;11671;49.990;8.028;2023-04-24T14:08:51;15.80;99.90
23010;DHT22;11671;49.990;8.028;2023-04-24T14:11:17;15.70;99.90
23010;DHT22;11671;49.990;8.028;2023-04-24T14:13:43;15.80;99.90
23010;DHT22;11671;49.990;8.028;2023-04-24T14:16:10;15.80;99.90
23010;DHT22;11671;49.990;8.028;2023-04-24T14:18:36;15.80;99.90
23010;DHT22;11671;49.990;8.028;2023-04-24T14:21:01;15.80;99.90
23010;DHT22;11671;49.990;8.028;2023-04-24T14:23:27;15.80;99.90
23010;DHT22;11671;49.990;8.028;2023-04-24T14:25:53;15.90;99.90
23010;DHT22;11671;49.990;8.028;2023-04-24T14:28:19;15.80;99.90
23010;DHT22;11671;49.990;8.028;2023-04-24T14:30:45;15.80;99.90
23010;DHT22;11671;49.990;8.028;2023-04-24T14:33:11;15.70;99.90
23010;DHT22;11671;49.990;8.028;2023-04-24T14:35:38;15.70;99.90
23010;DHT22;11671;49.990;8.028;2023-04-24T14:38:03;15.70;99.90
23010;DHT22;11671;49.990;8.028;2023-04-24T14:40:29;15.70;99.90
23010;DHT22;11671;49.990;8.028;2023-04-24T14:42:56;15.70;99.90
23010;DHT22;11671;49.990;8.028;2023-04-24T14:45:23;15.70;99.90
23010;DHT22;11671;49.990;8.028;2023-04-24T14:47:49;15.90;99.90
23010;DHT22;11671;49.990;8.028;2023-04-24T14:50:15;15.90;99.90
23010;DHT22;11671;49.990;8.028;2023-04-24T14:52:40;15.80;99.90
23010;DHT22;11671;49.990;8.028;2023-04-24T14:55:06;15.70;99.90
23010;DHT22;11671;49.990;8.028;2023-04-24T14:57:32;15.60;99.90
23010;DHT22;11671;49.990;8.028;2023-04-24T14:59:58;15.50;99.90
23010;DHT22;11671;49.990;8.028;2023-04-24T15:02:23;15.50;99.90
23010;DHT22;11671;49.990;8.028;2023-04-24T15:04:49;15.50;99.90
23010;DHT22;11671;49.990;8.028;2023-04-24T15:07:14;15.50;99.90
23010;DHT22;11671;49.990;8.028;2023-04-24T15:09:40;15.60;99.90
23010;DHT22;11671;49.990;8.028;2023-04-24T15:12:05;15.70;99.90
23010;DHT22;11671;49.990;8.028;2023-04-24T15:14:31;15.70;99.90
23010;DHT22;11671;49.990;8.028;2023-04-24T15:16:57;15.50;99.90
23010;DHT22;11671;49.990;8.028;2023-04-24T15:19:22;15.50;99.90
23010;DHT22;11671;49.990;8.028;2023-04-24T15:21:48;15.60;99.90
23010;DHT22;11671;49.990;8.028;2023-04-24T15:24:13;15.50;99.90
23010;DHT22;11671;49.990;8.028;2023-04-24T15:26:39;15.40;99.90
23010;DHT22;11671;49.990;8.028;2023-04-24T15:29:04;15.50;99.90
23010;DHT22;11671;49.990;8.028;2023-04-24T15:31:30;15.50;99.90
23010;DHT22;11671;49.990;8.028;2023-04-24T15:33:55;15.40;99.90
23010;DHT22;11671;49.990;8.028;2023-04-24T15:36:21;15.30;99.90
23010;DHT22;11671;49.990;8.028;2023-04-24T15:38:47;15.20;99.90